createdAt,value
2023-03-19T14:11:53.050Z,18.93
2023-03-19T14:16:36.090Z,18.5
2023-03-19T14:21:22.018Z,18.09
2023-03-19T14:26:05.262Z,18.19
2023-03-19T14:30:48.206Z,18.08
2023-03-19T14:35:31.459Z,17.69
2023-03-19T14:40:14.680Z,17.83
2023-03-19T14:44:57.747Z,17.88
2023-03-19T14:49:40.750Z,17.85
2023-03-19T14:54:24.361Z,17.72
2023-03-19T14:59:07.443Z,17.61
2023-03-19T15:03:50.451Z,17.6
2023-03-19T15:08:33.470Z,17.76
2023-03-19T15:13:16.569Z,17.81
2023-03-19T15:18:03.694Z,17.59
2023-03-19T15:22:47.948Z,17.76
2023-03-19T15:27:30.920Z,17.76
2023-03-19T15:32:16.001Z,17.66
2023-03-19T15:37:01.028Z,17.66
2023-03-19T15:41:44.090Z,17.52
2023-03-19T15:46:27.305Z,17.32
2023-03-19T15:51:10.672Z,17.19
2023-03-19T15:55:55.052Z,17.03
2023-03-19T16:00:40.013Z,16.9
2023-03-19T16:05:25.280Z,16.8
2023-03-19T16:10:09.487Z,16.75
2023-03-19T16:14:52.552Z,16.76
2023-03-19T16:19:39.195Z,16.65
2023-03-19T16:24:22.264Z,16.57
2023-03-19T16:29:06.219Z,16.46
2023-03-19T16:33:49.275Z,16.41
2023-03-19T16:38:32.913Z,16.34
2023-03-19T16:43:16.051Z,16.28
2023-03-19T16:47:59.145Z,16.15
2023-03-19T16:52:42.202Z,16.07
2023-03-19T16:57:26.653Z,15.91
2023-03-19T17:02:09.775Z,15.83
2023-03-19T17:06:52.791Z,15.67
2023-03-19T17:11:35.849Z,15.47
2023-03-19T17:16:20.051Z,15.26
2023-03-19T17:21:03.177Z,15.23
2023-03-19T17:25:46.854Z,15.19
2023-03-19T17:30:29.908Z,15.13
2023-03-19T17:35:12.930Z,15.1
2023-03-19T17:39:56.372Z,14.98
2023-03-19T17:44:39.506Z,14.84
2023-03-19T17:49:22.483Z,14.65
2023-03-19T17:54:05.551Z,14.57
2023-03-19T17:58:51.327Z,14.44
2023-03-19T18:03:34.448Z,14.35
2023-03-19T18:08:17.494Z,14.28
2023-03-19T18:13:00.535Z,14.09
2023-03-19T18:17:43.964Z,13.92
2023-03-19T18:22:27.036Z,13.72
2023-03-19T18:27:10.086Z,13.61
2023-03-19T18:31:53.217Z,13.56
2023-03-19T18:36:36.372Z,13.51
2023-03-19T18:41:19.471Z,13.26
2023-03-19T18:46:02.598Z,13.24
2023-03-19T18:50:45.852Z,13.17
2023-03-19T18:55:28.881Z,13.07
2023-03-19T19:00:11.954Z,13.05
2023-03-19T19:04:55.006Z,12.88
2023-03-19T19:09:37.981Z,12.83
2023-03-19T19:14:21.001Z,12.9
2023-03-19T19:19:04.081Z,12.88
2023-03-19T19:23:48.232Z,12.85
2023-03-19T19:28:31.335Z,12.66
2023-03-19T19:33:14.687Z,12.56
2023-03-19T19:37:57.872Z,12.52
2023-03-19T19:42:40.917Z,12.38
2023-03-19T19:47:23.922Z,12.38
2023-03-19T19:52:06.984Z,12.41
2023-03-19T19:56:49.935Z,12.38
2023-03-19T20:01:33.001Z,12.35
2023-03-19T20:06:16.038Z,12.33
2023-03-19T20:10:59.016Z,12.31
2023-03-19T20:15:42.103Z,12.26
2023-03-19T20:20:25.232Z,12.24
2023-03-19T20:25:08.355Z,12.26
2023-03-19T20:29:51.359Z,12.26
2023-03-19T20:34:39.206Z,12.21
2023-03-19T20:39:22.742Z,12.14
2023-03-19T20:44:05.817Z,12.1
2023-03-19T20:48:48.859Z,12.02
2023-03-19T20:53:31.920Z,11.95
2023-03-19T20:58:16.162Z,11.91
2023-03-19T21:02:59.407Z,11.86
2023-03-19T21:07:42.983Z,11.79
2023-03-19T21:12:27.854Z,11.69
2023-03-19T21:17:12.043Z,11.59
2023-03-19T21:21:55.021Z,11.67
2023-03-19T21:26:38.099Z,11.64
2023-03-19T21:31:21.245Z,11.55
2023-03-19T21:36:04.522Z,11.54
2023-03-19T21:40:47.715Z,11.57
2023-03-19T21:45:30.705Z,11.56
2023-03-19T21:50:13.945Z,11.58
2023-03-19T21:54:56.972Z,11.56
2023-03-19T21:59:39.965Z,11.53
2023-03-19T22:04:23.034Z,11.44
2023-03-19T22:09:06.247Z,11.37
2023-03-19T22:13:49.282Z,11.36
2023-03-19T22:18:32.295Z,11.33
2023-03-19T22:23:15.387Z,11.3
2023-03-19T22:27:58.436Z,11.3
2023-03-19T22:32:41.582Z,11.27
2023-03-19T22:37:25.446Z,11.24
2023-03-19T22:42:08.513Z,11.21
2023-03-19T22:46:51.518Z,11.13
2023-03-19T22:51:34.655Z,11.1
2023-03-19T22:56:17.636Z,11.07
2023-03-19T23:01:00.746Z,11.03
2023-03-19T23:05:43.878Z,10.99
2023-03-19T23:10:26.869Z,10.97
2023-03-19T23:15:09.902Z,10.92
2023-03-19T23:19:52.890Z,10.91
2023-03-19T23:24:35.887Z,10.86
2023-03-19T23:29:18.920Z,10.87
2023-03-19T23:34:05.598Z,10.78
2023-03-19T23:38:48.600Z,10.83
2023-03-19T23:43:35.262Z,10.85
2023-03-19T23:48:18.240Z,10.94
2023-03-19T23:53:01.223Z,10.87
2023-03-19T23:57:44.186Z,10.81
